sensor_id;sensor_type;location;lat;lon;timestamp;P1;durP1;ratioP1;P2;durP2;ratioP2
56770;SDS011;42641;59.794;17.616;2022-11-25T00:01:29;1.60;;;1.50;;
56770;SDS011;42641;59.794;17.616;2022-11-25T00:03:58;1.70;;;1.60;;
56770;SDS011;42641;59.794;17.616;2022-11-25T00:06:26;3.27;;;1.87;;
56770;SDS011;42641;59.794;17.616;2022-11-25T00:09:04;3.60;;;1.60;;
56770;SDS011;42641;59.794;17.616;2022-11-25T00:11:34;1.90;;;1.60;;
56770;SDS011;42641;59.794;17.616;2022-11-25T00:14:02;1.60;;;1.50;;
56770;SDS011;42641;59.794;17.616;2022-11-25T00:16:28;1.60;;;1.50;;
56770;SDS011;42641;59.794;17.616;2022-11-25T00:18:55;1.67;;;1.40;;
56770;SDS011;42641;59.794;17.616;2022-11-25T00:21:23;1.43;;;1.30;;
56770;SDS011;42641;59.794;17.616;2022-11-25T00:23:54;1.60;;;1.50;;
56770;SDS011;42641;59.794;17.616;2022-11-25T00:26:22;1.30;;;1.30;;
56770;SDS011;42641;59.794;17.616;2022-11-25T00:28:50;1.93;;;1.50;;
56770;SDS011;42641;59.794;17.616;2022-11-25T00:31:18;1.50;;;1.40;;
56770;SDS011;42641;59.794;17.616;2022-11-25T00:33:46;1.53;;;1.43;;
56770;SDS011;42641;59.794;17.616;2022-11-25T00:36:21;1.60;;;1.50;;
56770;SDS011;42641;59.794;17.616;2022-11-25T00:38:56;1.73;;;1.60;;
56770;SDS011;42641;59.794;17.616;2022-11-25T00:41:24;1.40;;;1.30;;
56770;SDS011;42641;59.794;17.616;2022-11-25T00:44:14;1.50;;;1.40;;
56770;SDS011;42641;59.794;17.616;2022-11-25T00:47:11;1.60;;;1.50;;
56770;SDS011;42641;59.794;17.616;2022-11-25T00:49:42;1.63;;;1.30;;
56770;SDS011;42641;59.794;17.616;2022-11-25T00:52:13;1.67;;;1.40;;
56770;SDS011;42641;59.794;17.616;2022-11-25T00:54:51;1.40;;;1.30;;
56770;SDS011;42641;59.794;17.616;2022-11-25T00:57:19;2.27;;;1.40;;
56770;SDS011;42641;59.794;17.616;2022-11-25T00:59:47;3.00;;;1.30;;
56770;SDS011;42641;59.794;17.616;2022-11-25T01:02:14;1.20;;;1.13;;
56770;SDS011;42641;59.794;17.616;2022-11-25T01:04:43;1.40;;;1.30;;
56770;SDS011;42641;59.794;17.616;2022-11-25T01:07:14;1.40;;;1.30;;
56770;SDS011;42641;59.794;17.616;2022-11-25T01:09:40;2.17;;;1.40;;
56770;SDS011;42641;59.794;17.616;2022-11-25T01:12:07;1.50;;;1.33;;
56770;SDS011;42641;59.794;17.616;2022-11-25T01:14:33;1.20;;;1.10;;
56770;SDS011;42641;59.794;17.616;2022-11-25T01:16:59;1.40;;;1.30;;
56770;SDS011;42641;59.794;17.616;2022-11-25T01:19:26;1.30;;;1.20;;
56770;SDS011;42641;59.794;17.616;2022-11-25T01:21:52;1.50;;;1.40;;
56770;SDS011;42641;59.794;17.616;2022-11-25T01:24:19;1.63;;;1.40;;
56770;SDS011;42641;59.794;17.616;2022-11-25T01:26:45;2.10;;;1.60;;
56770;SDS011;42641;59.794;17.616;2022-11-25T01:29:16;1.43;;;1.30;;
56770;SDS011;42641;59.794;17.616;2022-11-25T01:31:44;1.77;;;1.60;;
56770;SDS011;42641;59.794;17.616;2022-11-25T01:34:18;1.50;;;1.40;;
56770;SDS011;42641;59.794;17.616;2022-11-25T01:36:47;1.53;;;1.40;;
56770;SDS011;42641;59.794;17.616;2022-11-25T01:39:20;2.00;;;1.57;;
56770;SDS011;42641;59.794;17.616;2022-11-25T01:41:48;1.70;;;1.60;;
56770;SDS011;42641;59.794;17.616;2022-11-25T01:44:19;1.57;;;1.47;;
56770;SDS011;42641;59.794;17.616;2022-11-25T01:54:21;1.50;;;1.40;;
56770;SDS011;42641;59.794;17.616;2022-11-25T01:56:59;1.50;;;1.40;;
56770;SDS011;42641;59.794;17.616;2022-11-25T01:59:28;1.50;;;1.40;;
56770;SDS011;42641;59.794;17.616;2022-11-25T02:01:59;1.50;;;1.40;;
56770;SDS011;42641;59.794;17.616;2022-11-25T02:04:27;1.53;;;1.43;;
56770;SDS011;42641;59.794;17.616;2022-11-25T02:06:59;1.70;;;1.60;;
56770;SDS011;42641;59.794;17.616;2022-11-25T02:09:30;1.70;;;1.60;;
56770;SDS011;42641;59.794;17.616;2022-11-25T02:11:59;1.67;;;1.57;;
56770;SDS011;42641;59.794;17.616;2022-11-25T02:14:28;1.97;;;1.50;;
56770;SDS011;42641;59.794;17.616;2022-11-25T02:16:55;1.57;;;1.30;;
56770;SDS011;42641;59.794;17.616;2022-11-25T02:19:27;1.40;;;1.30;;
56770;SDS011;42641;59.794;17.616;2022-11-25T02:22:08;1.40;;;1.30;;
56770;SDS011;42641;59.794;17.616;2022-11-25T02:24:42;1.90;;;1.70;;
56770;SDS011;42641;59.794;17.616;2022-11-25T02:27:11;1.80;;;1.70;;
56770;SDS011;42641;59.794;17.616;2022-11-25T02:29:41;2.07;;;1.50;;
56770;SDS011;42641;59.794;17.616;2022-11-25T02:32:08;1.80;;;1.70;;
56770;SDS011;42641;59.794;17.616;2022-11-25T02:34:34;2.13;;;1.90;;
56770;SDS011;42641;59.794;17.616;2022-11-25T02:37:10;2.40;;;2.00;;
56770;SDS011;42641;59.794;17.616;2022-11-25T02:39:37;2.90;;;1.57;;
56770;SDS011;42641;59.794;17.616;2022-11-25T02:42:03;2.73;;;1.67;;
56770;SDS011;42641;59.794;17.616;2022-11-25T02:44:30;2.00;;;1.80;;
56770;SDS011;42641;59.794;17.616;2022-11-25T02:46:56;2.07;;;1.87;;
56770;SDS011;42641;59.794;17.616;2022-11-25T02:49:23;1.50;;;1.40;;
56770;SDS011;42641;59.794;17.616;2022-11-25T02:51:50;2.20;;;1.50;;
56770;SDS011;42641;59.794;17.616;2022-11-25T02:54:17;1.63;;;1.53;;
56770;SDS011;42641;59.794;17.616;2022-11-25T02:56:43;1.80;;;1.70;;
56770;SDS011;42641;59.794;17.616;2022-11-25T02:59:10;2.20;;;1.80;;
56770;SDS011;42641;59.794;17.616;2022-11-25T03:01:37;1.70;;;1.60;;
56770;SDS011;42641;59.794;17.616;2022-11-25T03:04:05;2.30;;;1.70;;
56770;SDS011;42641;59.794;17.616;2022-11-25T03:06:32;2.00;;;1.60;;
56770;SDS011;42641;59.794;17.616;2022-11-25T03:08:59;2.50;;;1.70;;
56770;SDS011;42641;59.794;17.616;2022-11-25T03:11:26;1.57;;;1.47;;
56770;SDS011;42641;59.794;17.616;2022-11-25T03:14:12;1.70;;;1.60;;
56770;SDS011;42641;59.794;17.616;2022-11-25T03:16:38;1.93;;;1.80;;
56770;SDS011;42641;59.794;17.616;2022-11-25T03:19:05;1.90;;;1.80;;
56770;SDS011;42641;59.794;17.616;2022-11-25T03:21:31;2.03;;;1.87;;
56770;SDS011;42641;59.794;17.616;2022-11-25T03:23:58;1.60;;;1.50;;
56770;SDS011;42641;59.794;17.616;2022-11-25T03:26:24;1.70;;;1.60;;
56770;SDS011;42641;59.794;17.616;2022-11-25T03:28:51;1.77;;;1.60;;
56770;SDS011;42641;59.794;17.616;2022-11-25T03:31:18;2.53;;;1.70;;
56770;SDS011;42641;59.794;17.616;2022-11-25T03:33:44;2.03;;;1.60;;
56770;SDS011;42641;59.794;17.616;2022-11-25T03:36:11;1.50;;;1.40;;
56770;SDS011;42641;59.794;17.616;2022-11-25T03:38:37;1.60;;;1.50;;
56770;SDS011;42641;59.794;17.616;2022-11-25T03:41:04;1.60;;;1.50;;
56770;SDS011;42641;59.794;17.616;2022-11-25T03:43:32;1.90;;;1.70;;
56770;SDS011;42641;59.794;17.616;2022-11-25T03:46:00;2.40;;;1.63;;
56770;SDS011;42641;59.794;17.616;2022-11-25T03:48:26;1.87;;;1.70;;
56770;SDS011;42641;59.794;17.616;2022-11-25T03:50:54;2.17;;;1.70;;
56770;SDS011;42641;59.794;17.616;2022-11-25T03:53:22;1.90;;;1.70;;
56770;SDS011;42641;59.794;17.616;2022-11-25T03:55:49;1.57;;;1.47;;
56770;SDS011;42641;59.794;17.616;2022-11-25T03:58:18;2.40;;;1.70;;
56770;SDS011;42641;59.794;17.616;2022-11-25T04:00:45;1.53;;;1.43;;
56770;SDS011;42641;59.794;17.616;2022-11-25T04:03:13;1.63;;;1.47;;
56770;SDS011;42641;59.794;17.616;2022-11-25T04:05:40;1.67;;;1.43;;
56770;SDS011;42641;59.794;17.616;2022-11-25T04:08:07;1.80;;;1.53;;
56770;SDS011;42641;59.794;17.616;2022-11-25T04:10:34;1.60;;;1.50;;
56770;SDS011;42641;59.794;17.616;2022-11-25T04:13:02;1.63;;;1.53;;
56770;SDS011;42641;59.794;17.616;2022-11-25T04:15:34;1.93;;;1.73;;
56770;SDS011;42641;59.794;17.616;2022-11-25T04:18:01;2.00;;;1.80;;
56770;SDS011;42641;59.794;17.616;2022-11-25T04:20:30;1.57;;;1.47;;
56770;SDS011;42641;59.794;17.616;2022-11-25T04:23:01;2.00;;;1.60;;
56770;SDS011;42641;59.794;17.616;2022-11-25T04:25:28;1.63;;;1.50;;
56770;SDS011;42641;59.794;17.616;2022-11-25T04:27:54;2.80;;;1.83;;
56770;SDS011;42641;59.794;17.616;2022-11-25T04:30:27;1.63;;;1.30;;
56770;SDS011;42641;59.794;17.616;2022-11-25T04:32:53;2.13;;;1.63;;
56770;SDS011;42641;59.794;17.616;2022-11-25T04:35:20;1.87;;;1.70;;
56770;SDS011;42641;59.794;17.616;2022-11-25T04:37:50;1.93;;;1.50;;
56770;SDS011;42641;59.794;17.616;2022-11-25T04:40:17;1.83;;;1.63;;
56770;SDS011;42641;59.794;17.616;2022-11-25T04:42:48;1.67;;;1.50;;
56770;SDS011;42641;59.794;17.616;2022-11-25T04:45:18;2.73;;;1.83;;
56770;SDS011;42641;59.794;17.616;2022-11-25T04:47:45;1.63;;;1.53;;
56770;SDS011;42641;59.794;17.616;2022-11-25T04:50:13;1.77;;;1.67;;
56770;SDS011;42641;59.794;17.616;2022-11-25T04:52:51;2.00;;;1.67;;
56770;SDS011;42641;59.794;17.616;2022-11-25T04:55:18;1.93;;;1.73;;
56770;SDS011;42641;59.794;17.616;2022-11-25T04:57:44;2.00;;;1.80;;
56770;SDS011;42641;59.794;17.616;2022-11-25T05:00:12;1.97;;;1.67;;
56770;SDS011;42641;59.794;17.616;2022-11-25T05:02:39;1.60;;;1.50;;
56770;SDS011;42641;59.794;17.616;2022-11-25T05:05:12;1.70;;;1.60;;
56770;SDS011;42641;59.794;17.616;2022-11-25T05:07:39;1.93;;;1.73;;
56770;SDS011;42641;59.794;17.616;2022-11-25T05:10:06;1.90;;;1.70;;
56770;SDS011;42641;59.794;17.616;2022-11-25T05:12:37;2.13;;;1.50;;
56770;SDS011;42641;59.794;17.616;2022-11-25T05:15:08;2.50;;;1.60;;
56770;SDS011;42641;59.794;17.616;2022-11-25T05:17:37;2.23;;;1.33;;
56770;SDS011;42641;59.794;17.616;2022-11-25T05:20:05;1.77;;;1.67;;
56770;SDS011;42641;59.794;17.616;2022-11-25T05:22:33;2.97;;;1.77;;
56770;SDS011;42641;59.794;17.616;2022-11-25T05:25:01;1.80;;;1.70;;
56770;SDS011;42641;59.794;17.616;2022-11-25T05:27:30;1.70;;;1.60;;
56770;SDS011;42641;59.794;17.616;2022-11-25T05:30:01;2.13;;;1.80;;
56770;SDS011;42641;59.794;17.616;2022-11-25T05:32:27;1.70;;;1.60;;
56770;SDS011;42641;59.794;17.616;2022-11-25T05:34:57;2.13;;;1.60;;
56770;SDS011;42641;59.794;17.616;2022-11-25T05:37:24;2.30;;;2.10;;
56770;SDS011;42641;59.794;17.616;2022-11-25T05:39:56;1.83;;;1.60;;
56770;SDS011;42641;59.794;17.616;2022-11-25T05:42:48;1.83;;;1.73;;
56770;SDS011;42641;59.794;17.616;2022-11-25T05:45:16;1.80;;;1.70;;
56770;SDS011;42641;59.794;17.616;2022-11-25T05:47:43;2.00;;;1.80;;
56770;SDS011;42641;59.794;17.616;2022-11-25T05:50:11;2.00;;;1.80;;
56770;SDS011;42641;59.794;17.616;2022-11-25T05:52:38;2.03;;;1.83;;
56770;SDS011;42641;59.794;17.616;2022-11-25T05:55:04;2.10;;;1.90;;
56770;SDS011;42641;59.794;17.616;2022-11-25T05:57:32;2.00;;;1.80;;
56770;SDS011;42641;59.794;17.616;2022-11-25T06:00:04;1.67;;;1.57;;
56770;SDS011;42641;59.794;17.616;2022-11-25T06:02:49;1.87;;;1.60;;
56770;SDS011;42641;59.794;17.616;2022-11-25T06:05:17;2.07;;;1.87;;
56770;SDS011;42641;59.794;17.616;2022-11-25T06:07:43;2.13;;;1.83;;
56770;SDS011;42641;59.794;17.616;2022-11-25T06:10:10;1.97;;;1.80;;
56770;SDS011;42641;59.794;17.616;2022-11-25T06:12:39;1.80;;;1.70;;
56770;SDS011;42641;59.794;17.616;2022-11-25T06:15:05;2.10;;;1.90;;
56770;SDS011;42641;59.794;17.616;2022-11-25T06:17:34;3.90;;;1.67;;
56770;SDS011;42641;59.794;17.616;2022-11-25T06:20:09;2.60;;;1.90;;
56770;SDS011;42641;59.794;17.616;2022-11-25T06:22:36;1.80;;;1.70;;
56770;SDS011;42641;59.794;17.616;2022-11-25T06:25:02;2.00;;;1.80;;
56770;SDS011;42641;59.794;17.616;2022-11-25T06:27:30;1.90;;;1.80;;
56770;SDS011;42641;59.794;17.616;2022-11-25T06:29:57;2.57;;;2.20;;
56770;SDS011;42641;59.794;17.616;2022-11-25T06:32:24;3.17;;;1.90;;
56770;SDS011;42641;59.794;17.616;2022-11-25T06:35:11;2.10;;;1.73;;
56770;SDS011;42641;59.794;17.616;2022-11-25T06:37:45;4.03;;;2.07;;
56770;SDS011;42641;59.794;17.616;2022-11-25T06:40:12;1.97;;;1.77;;
56770;SDS011;42641;59.794;17.616;2022-11-25T06:42:38;1.87;;;1.67;;
56770;SDS011;42641;59.794;17.616;2022-11-25T06:45:05;2.40;;;2.20;;
56770;SDS011;42641;59.794;17.616;2022-11-25T06:47:31;2.20;;;2.00;;
56770;SDS011;42641;59.794;17.616;2022-11-25T06:49:58;3.77;;;2.47;;
56770;SDS011;42641;59.794;17.616;2022-11-25T06:52:24;3.63;;;2.40;;
56770;SDS011;42641;59.794;17.616;2022-11-25T06:54:50;2.77;;;2.43;;
56770;SDS011;42641;59.794;17.616;2022-11-25T06:57:18;2.10;;;1.90;;
56770;SDS011;42641;59.794;17.616;2022-11-25T06:59:44;4.33;;;1.83;;
56770;SDS011;42641;59.794;17.616;2022-11-25T07:02:11;2.43;;;2.13;;
56770;SDS011;42641;59.794;17.616;2022-11-25T07:04:38;2.37;;;2.17;;
56770;SDS011;42641;59.794;17.616;2022-11-25T07:07:07;3.20;;;2.30;;
56770;SDS011;42641;59.794;17.616;2022-11-25T07:09:34;2.63;;;2.07;;
56770;SDS011;42641;59.794;17.616;2022-11-25T07:12:00;2.43;;;2.07;;
56770;SDS011;42641;59.794;17.616;2022-11-25T07:14:27;3.80;;;1.97;;
56770;SDS011;42641;59.794;17.616;2022-11-25T07:16:53;2.10;;;1.90;;
56770;SDS011;42641;59.794;17.616;2022-11-25T07:19:20;2.20;;;2.00;;
56770;SDS011;42641;59.794;17.616;2022-11-25T07:21:46;2.33;;;1.90;;
56770;SDS011;42641;59.794;17.616;2022-11-25T07:24:13;3.60;;;2.00;;
56770;SDS011;42641;59.794;17.616;2022-11-25T07:26:41;2.00;;;1.87;;
56770;SDS011;42641;59.794;17.616;2022-11-25T07:29:10;2.70;;;2.00;;
56770;SDS011;42641;59.794;17.616;2022-11-25T07:31:39;2.93;;;1.90;;
56770;SDS011;42641;59.794;17.616;2022-11-25T07:34:11;2.20;;;1.80;;
56770;SDS011;42641;59.794;17.616;2022-11-25T07:36:43;2.40;;;1.87;;
56770;SDS011;42641;59.794;17.616;2022-11-25T07:39:11;2.27;;;2.07;;
56770;SDS011;42641;59.794;17.616;2022-11-25T07:41:39;2.00;;;1.70;;
56770;SDS011;42641;59.794;17.616;2022-11-25T07:44:06;3.27;;;2.10;;
56770;SDS011;42641;59.794;17.616;2022-11-25T07:46:48;2.13;;;1.90;;
56770;SDS011;42641;59.794;17.616;2022-11-25T07:49:16;2.10;;;1.90;;
56770;SDS011;42641;59.794;17.616;2022-11-25T07:51:48;2.63;;;2.00;;
56770;SDS011;42641;59.794;17.616;2022-11-25T07:54:19;2.40;;;2.10;;
56770;SDS011;42641;59.794;17.616;2022-11-25T07:56:47;2.73;;;2.00;;
56770;SDS011;42641;59.794;17.616;2022-11-25T07:59:16;2.30;;;1.90;;
56770;SDS011;42641;59.794;17.616;2022-11-25T08:01:45;2.10;;;1.90;;
56770;SDS011;42641;59.794;17.616;2022-11-25T08:04:13;2.63;;;2.00;;
56770;SDS011;42641;59.794;17.616;2022-11-25T08:06:40;2.40;;;2.00;;
56770;SDS011;42641;59.794;17.616;2022-11-25T08:09:12;2.40;;;2.00;;
56770;SDS011;42641;59.794;17.616;2022-11-25T08:11:40;2.37;;;1.83;;
56770;SDS011;42641;59.794;17.616;2022-11-25T08:14:07;2.47;;;1.80;;
56770;SDS011;42641;59.794;17.616;2022-11-25T08:16:35;3.33;;;2.10;;
56770;SDS011;42641;59.794;17.616;2022-11-25T08:19:03;2.30;;;2.10;;
56770;SDS011;42641;59.794;17.616;2022-11-25T08:21:32;2.30;;;2.10;;
56770;SDS011;42641;59.794;17.616;2022-11-25T08:23:58;2.47;;;2.07;;
56770;SDS011;42641;59.794;17.616;2022-11-25T08:26:28;2.00;;;1.80;;
56770;SDS011;42641;59.794;17.616;2022-11-25T08:29:02;2.57;;;1.97;;
56770;SDS011;42641;59.794;17.616;2022-11-25T08:31:31;2.67;;;2.20;;
56770;SDS011;42641;59.794;17.616;2022-11-25T08:33:59;3.10;;;2.10;;
56770;SDS011;42641;59.794;17.616;2022-11-25T08:36:26;3.23;;;2.13;;
56770;SDS011;42641;59.794;17.616;2022-11-25T08:38:54;2.77;;;2.10;;
56770;SDS011;42641;59.794;17.616;2022-11-25T08:41:29;2.80;;;2.10;;
56770;SDS011;42641;59.794;17.616;2022-11-25T08:43:58;2.77;;;2.13;;
56770;SDS011;42641;59.794;17.616;2022-11-25T08:46:30;2.73;;;2.17;;
56770;SDS011;42641;59.794;17.616;2022-11-25T08:48:59;2.93;;;2.47;;
56770;SDS011;42641;59.794;17.616;2022-11-25T08:51:29;2.37;;;2.17;;
56770;SDS011;42641;59.794;17.616;2022-11-25T08:53:57;3.60;;;2.27;;
56770;SDS011;42641;59.794;17.616;2022-11-25T08:56:24;2.47;;;2.03;;
56770;SDS011;42641;59.794;17.616;2022-11-25T08:58:51;3.63;;;2.23;;
56770;SDS011;42641;59.794;17.616;2022-11-25T09:01:19;2.50;;;2.20;;
56770;SDS011;42641;59.794;17.616;2022-11-25T09:03:49;2.83;;;2.23;;
56770;SDS011;42641;59.794;17.616;2022-11-25T09:06:17;2.40;;;2.20;;
56770;SDS011;42641;59.794;17.616;2022-11-25T09:08:44;2.53;;;2.33;;
56770;SDS011;42641;59.794;17.616;2022-11-25T09:11:11;3.07;;;2.30;;
56770;SDS011;42641;59.794;17.616;2022-11-25T09:13:38;2.30;;;2.10;;
56770;SDS011;42641;59.794;17.616;2022-11-25T09:16:04;2.30;;;2.10;;
56770;SDS011;42641;59.794;17.616;2022-11-25T09:18:31;2.37;;;2.10;;
56770;SDS011;42641;59.794;17.616;2022-11-25T09:20:58;2.73;;;2.10;;
56770;SDS011;42641;59.794;17.616;2022-11-25T09:23:25;4.93;;;2.50;;
56770;SDS011;42641;59.794;17.616;2022-11-25T09:28:19;2.57;;;2.03;;
56770;SDS011;42641;59.794;17.616;2022-11-25T09:30:46;2.53;;;2.20;;
56770;SDS011;42641;59.794;17.616;2022-11-25T09:33:13;2.97;;;2.30;;
56770;SDS011;42641;59.794;17.616;2022-11-25T09:35:40;2.37;;;2.17;;
56770;SDS011;42641;59.794;17.616;2022-11-25T09:38:06;2.17;;;1.97;;
56770;SDS011;42641;59.794;17.616;2022-11-25T09:46:46;2.30;;;2.10;;
56770;SDS011;42641;59.794;17.616;2022-11-25T09:54:57;2.17;;;1.97;;
56770;SDS011;42641;59.794;17.616;2022-11-25T10:00:19;2.30;;;2.10;;
56770;SDS011;42641;59.794;17.616;2022-11-25T10:05:54;2.30;;;2.10;;
56770;SDS011;42641;59.794;17.616;2022-11-25T10:08:42;2.70;;;2.50;;
56770;SDS011;42641;59.794;17.616;2022-11-25T10:16:57;2.53;;;2.33;;
56770;SDS011;42641;59.794;17.616;2022-11-25T10:19:38;2.23;;;1.83;;
56770;SDS011;42641;59.794;17.616;2022-11-25T10:22:26;2.27;;;2.07;;
56770;SDS011;42641;59.794;17.616;2022-11-25T10:25:05;2.30;;;2.10;;
56770;SDS011;42641;59.794;17.616;2022-11-25T10:27:41;2.87;;;2.10;;
56770;SDS011;42641;59.794;17.616;2022-11-25T10:30:37;2.93;;;2.27;;
56770;SDS011;42641;59.794;17.616;2022-11-25T10:33:20;2.50;;;2.30;;
56770;SDS011;42641;59.794;17.616;2022-11-25T10:39:05;2.80;;;2.30;;
56770;SDS011;42641;59.794;17.616;2022-11-25T10:41:37;3.07;;;2.20;;
56770;SDS011;42641;59.794;17.616;2022-11-25T10:44:11;2.60;;;2.33;;
56770;SDS011;42641;59.794;17.616;2022-11-25T10:55:33;3.37;;;2.57;;
56770;SDS011;42641;59.794;17.616;2022-11-25T10:58:18;3.27;;;2.70;;
56770;SDS011;42641;59.794;17.616;2022-11-25T11:01:00;2.70;;;2.40;;
56770;SDS011;42641;59.794;17.616;2022-11-25T11:03:50;2.93;;;2.50;;
56770;SDS011;42641;59.794;17.616;2022-11-25T11:06:34;3.17;;;2.87;;
56770;SDS011;42641;59.794;17.616;2022-11-25T11:09:02;2.80;;;2.40;;
56770;SDS011;42641;59.794;17.616;2022-11-25T11:11:29;3.40;;;2.77;;
56770;SDS011;42641;59.794;17.616;2022-11-25T11:13:57;2.93;;;2.57;;
56770;SDS011;42641;59.794;17.616;2022-11-25T11:16:37;3.50;;;3.03;;
56770;SDS011;42641;59.794;17.616;2022-11-25T11:19:21;3.17;;;2.87;;
56770;SDS011;42641;59.794;17.616;2022-11-25T11:21:49;4.23;;;2.87;;
56770;SDS011;42641;59.794;17.616;2022-11-25T11:27:00;4.87;;;2.77;;
56770;SDS011;42641;59.794;17.616;2022-11-25T11:29:32;4.30;;;3.13;;
56770;SDS011;42641;59.794;17.616;2022-11-25T11:32:03;3.30;;;2.60;;
56770;SDS011;42641;59.794;17.616;2022-11-25T11:42:56;4.07;;;2.87;;
56770;SDS011;42641;59.794;17.616;2022-11-25T11:45:36;3.87;;;3.17;;
56770;SDS011;42641;59.794;17.616;2022-11-25T11:48:30;4.37;;;2.87;;
56770;SDS011;42641;59.794;17.616;2022-11-25T11:54:06;3.77;;;3.07;;
56770;SDS011;42641;59.794;17.616;2022-11-25T11:57:13;3.87;;;2.80;;
56770;SDS011;42641;59.794;17.616;2022-11-25T11:59:55;3.27;;;2.70;;
56770;SDS011;42641;59.794;17.616;2022-11-25T12:05:17;3.40;;;2.87;;
56770;SDS011;42641;59.794;17.616;2022-11-25T12:10:23;6.57;;;2.90;;
56770;SDS011;42641;59.794;17.616;2022-11-25T12:18:19;4.20;;;3.17;;
56770;SDS011;42641;59.794;17.616;2022-11-25T12:20:56;3.47;;;2.87;;
56770;SDS011;42641;59.794;17.616;2022-11-25T12:23:41;3.40;;;3.00;;
56770;SDS011;42641;59.794;17.616;2022-11-25T12:26:28;6.90;;;3.13;;
56770;SDS011;42641;59.794;17.616;2022-11-25T12:29:04;4.73;;;3.23;;
56770;SDS011;42641;59.794;17.616;2022-11-25T12:31:38;3.27;;;2.97;;
56770;SDS011;42641;59.794;17.616;2022-11-25T12:37:15;7.07;;;3.20;;
56770;SDS011;42641;59.794;17.616;2022-11-25T12:39:55;3.97;;;3.00;;
56770;SDS011;42641;59.794;17.616;2022-11-25T12:42:29;4.10;;;3.33;;
56770;SDS011;42641;59.794;17.616;2022-11-25T12:45:03;3.73;;;3.00;;
56770;SDS011;42641;59.794;17.616;2022-11-25T12:47:43;3.40;;;3.10;;
56770;SDS011;42641;59.794;17.616;2022-11-25T12:50:17;4.87;;;3.93;;
56770;SDS011;42641;59.794;17.616;2022-11-25T12:52:59;4.00;;;3.47;;
56770;SDS011;42641;59.794;17.616;2022-11-25T12:55:37;3.97;;;3.30;;
56770;SDS011;42641;59.794;17.616;2022-11-25T13:01:07;3.80;;;3.20;;
56770;SDS011;42641;59.794;17.616;2022-11-25T13:12:33;3.83;;;3.07;;
56770;SDS011;42641;59.794;17.616;2022-11-25T13:15:28;4.00;;;3.50;;
56770;SDS011;42641;59.794;17.616;2022-11-25T13:18:01;3.97;;;3.57;;
56770;SDS011;42641;59.794;17.616;2022-11-25T13:20:38;3.93;;;3.20;;
56770;SDS011;42641;59.794;17.616;2022-11-25T13:25:39;4.73;;;3.70;;
56770;SDS011;42641;59.794;17.616;2022-11-25T13:28:27;5.80;;;4.40;;
56770;SDS011;42641;59.794;17.616;2022-11-25T13:30:53;6.87;;;5.50;;
56770;SDS011;42641;59.794;17.616;2022-11-25T13:35:53;6.73;;;5.63;;
56770;SDS011;42641;59.794;17.616;2022-11-25T13:41:22;5.10;;;4.53;;
56770;SDS011;42641;59.794;17.616;2022-11-25T13:43:58;5.93;;;4.27;;
56770;SDS011;42641;59.794;17.616;2022-11-25T13:46:32;5.43;;;4.17;;
56770;SDS011;42641;59.794;17.616;2022-11-25T13:51:49;4.80;;;4.17;;
56770;SDS011;42641;59.794;17.616;2022-11-25T13:54:18;4.77;;;4.00;;
56770;SDS011;42641;59.794;17.616;2022-11-25T13:59:56;4.77;;;4.17;;
56770;SDS011;42641;59.794;17.616;2022-11-25T14:04:58;4.37;;;3.90;;
56770;SDS011;42641;59.794;17.616;2022-11-25T14:07:43;5.40;;;3.83;;
56770;SDS011;42641;59.794;17.616;2022-11-25T14:19:46;4.73;;;3.77;;
56770;SDS011;42641;59.794;17.616;2022-11-25T14:22:32;4.77;;;4.13;;
56770;SDS011;42641;59.794;17.616;2022-11-25T14:25:43;5.27;;;4.10;;
56770;SDS011;42641;59.794;17.616;2022-11-25T14:30:44;5.50;;;4.20;;
56770;SDS011;42641;59.794;17.616;2022-11-25T14:33:18;5.03;;;4.23;;
56770;SDS011;42641;59.794;17.616;2022-11-25T14:35:51;7.00;;;4.30;;
56770;SDS011;42641;59.794;17.616;2022-11-25T14:41:14;7.23;;;5.73;;
56770;SDS011;42641;59.794;17.616;2022-11-25T14:43:44;7.77;;;5.67;;
56770;SDS011;42641;59.794;17.616;2022-11-25T14:46:17;8.67;;;6.93;;
56770;SDS011;42641;59.794;17.616;2022-11-25T14:48:51;6.77;;;4.87;;
56770;SDS011;42641;59.794;17.616;2022-11-25T14:51:19;5.13;;;4.13;;
56770;SDS011;42641;59.794;17.616;2022-11-25T14:53:47;4.70;;;4.10;;
56770;SDS011;42641;59.794;17.616;2022-11-25T14:56:16;5.40;;;4.57;;
56770;SDS011;42641;59.794;17.616;2022-11-25T14:58:50;6.70;;;4.20;;
56770;SDS011;42641;59.794;17.616;2022-11-25T15:01:19;6.77;;;5.00;;
56770;SDS011;42641;59.794;17.616;2022-11-25T15:03:48;6.33;;;4.90;;
56770;SDS011;42641;59.794;17.616;2022-11-25T15:06:15;5.77;;;4.50;;
56770;SDS011;42641;59.794;17.616;2022-11-25T15:08:45;6.43;;;4.43;;
56770;SDS011;42641;59.794;17.616;2022-11-25T15:11:23;5.60;;;4.40;;
56770;SDS011;42641;59.794;17.616;2022-11-25T15:13:54;6.43;;;4.83;;
56770;SDS011;42641;59.794;17.616;2022-11-25T15:16:35;7.40;;;4.77;;
56770;SDS011;42641;59.794;17.616;2022-11-25T15:19:05;6.27;;;5.27;;
56770;SDS011;42641;59.794;17.616;2022-11-25T15:21:40;7.83;;;5.20;;
56770;SDS011;42641;59.794;17.616;2022-11-25T15:26:57;5.70;;;4.80;;
56770;SDS011;42641;59.794;17.616;2022-11-25T15:29:26;5.40;;;4.60;;
56770;SDS011;42641;59.794;17.616;2022-11-25T15:31:54;6.27;;;5.10;;
56770;SDS011;42641;59.794;17.616;2022-11-25T15:34:22;6.23;;;4.90;;
56770;SDS011;42641;59.794;17.616;2022-11-25T15:36:49;9.13;;;5.30;;
56770;SDS011;42641;59.794;17.616;2022-11-25T15:41:49;7.13;;;4.83;;
56770;SDS011;42641;59.794;17.616;2022-11-25T15:44:49;7.03;;;4.93;;
56770;SDS011;42641;59.794;17.616;2022-11-25T15:47:25;7.30;;;6.20;;
56770;SDS011;42641;59.794;17.616;2022-11-25T15:52:44;6.17;;;5.37;;
56770;SDS011;42641;59.794;17.616;2022-11-25T15:55:32;6.77;;;5.63;;
56770;SDS011;42641;59.794;17.616;2022-11-25T15:58:12;6.67;;;5.00;;
56770;SDS011;42641;59.794;17.616;2022-11-25T16:03:48;7.00;;;5.07;;
56770;SDS011;42641;59.794;17.616;2022-11-25T16:06:22;5.77;;;4.90;;
56770;SDS011;42641;59.794;17.616;2022-11-25T16:08:54;7.80;;;5.47;;
56770;SDS011;42641;59.794;17.616;2022-11-25T16:11:22;6.63;;;5.10;;
56770;SDS011;42641;59.794;17.616;2022-11-25T16:13:50;8.73;;;6.57;;
56770;SDS011;42641;59.794;17.616;2022-11-25T16:16:21;8.17;;;5.93;;
56770;SDS011;42641;59.794;17.616;2022-11-25T16:21:28;7.97;;;6.00;;
56770;SDS011;42641;59.794;17.616;2022-11-25T16:29:16;10.47;;;7.60;;
56770;SDS011;42641;59.794;17.616;2022-11-25T16:31:52;8.30;;;6.77;;
56770;SDS011;42641;59.794;17.616;2022-11-25T16:34:19;6.63;;;5.80;;
56770;SDS011;42641;59.794;17.616;2022-11-25T16:36:49;8.10;;;6.40;;
56770;SDS011;42641;59.794;17.616;2022-11-25T16:39:15;9.00;;;6.30;;
56770;SDS011;42641;59.794;17.616;2022-11-25T16:41:41;7.60;;;5.97;;
56770;SDS011;42641;59.794;17.616;2022-11-25T16:44:17;8.20;;;5.63;;
56770;SDS011;42641;59.794;17.616;2022-11-25T16:46:46;6.73;;;5.40;;
56770;SDS011;42641;59.794;17.616;2022-11-25T16:49:13;8.97;;;6.03;;
56770;SDS011;42641;59.794;17.616;2022-11-25T16:51:41;9.77;;;7.57;;
56770;SDS011;42641;59.794;17.616;2022-11-25T16:54:07;9.00;;;7.43;;
56770;SDS011;42641;59.794;17.616;2022-11-25T16:56:40;10.33;;;6.30;;
56770;SDS011;42641;59.794;17.616;2022-11-25T16:59:19;9.10;;;5.90;;
56770;SDS011;42641;59.794;17.616;2022-11-25T17:02:09;6.57;;;5.57;;
56770;SDS011;42641;59.794;17.616;2022-11-25T17:04:43;7.10;;;5.60;;
56770;SDS011;42641;59.794;17.616;2022-11-25T17:07:11;7.97;;;5.90;;
56770;SDS011;42641;59.794;17.616;2022-11-25T17:09:38;8.67;;;6.47;;
56770;SDS011;42641;59.794;17.616;2022-11-25T17:12:15;6.87;;;5.80;;